createdAt,value
2022-12-26T00:00:02.629Z,11.70
2022-12-26T00:02:29.469Z,11.80
2022-12-26T00:04:56.453Z,11.80
2022-12-26T00:07:23.193Z,11.80
2022-12-26T00:09:50.021Z,11.80
2022-12-26T00:12:16.761Z,11.70
2022-12-26T00:14:43.526Z,11.70
2022-12-26T00:17:10.261Z,11.70
2022-12-26T00:19:37.245Z,11.70
2022-12-26T00:22:04.137Z,11.60
2022-12-26T00:24:30.830Z,11.60
2022-12-26T00:26:57.530Z,11.50
2022-12-26T00:29:24.302Z,11.60
2022-12-26T00:31:51.233Z,11.50
2022-12-26T00:34:18.036Z,11.50
2022-12-26T00:36:44.903Z,11.40
2022-12-26T00:39:12.059Z,11.40
2022-12-26T00:41:38.772Z,11.50
2022-12-26T00:44:06.139Z,11.50
2022-12-26T00:46:32.999Z,11.60
2022-12-26T00:49:00.208Z,11.60
2022-12-26T00:51:26.951Z,11.60
2022-12-26T00:53:53.764Z,11.50
2022-12-26T00:56:20.549Z,11.60
2022-12-26T00:58:47.220Z,11.60
2022-12-26T01:01:19.855Z,11.60
2022-12-26T01:03:47.305Z,11.50
2022-12-26T01:06:14.284Z,11.50
2022-12-26T01:08:41.503Z,11.50
2022-12-26T01:11:10.507Z,11.50
2022-12-26T01:13:37.432Z,11.50
2022-12-26T01:16:05.297Z,11.40
2022-12-26T01:18:32.597Z,11.40
2022-12-26T01:21:05.643Z,11.40
2022-12-26T01:23:32.447Z,11.50
2022-12-26T01:26:14.944Z,11.40
2022-12-26T01:28:45.959Z,11.40
2022-12-26T01:31:12.696Z,11.40
2022-12-26T01:33:39.465Z,11.40
2022-12-26T01:36:06.519Z,11.40
2022-12-26T01:38:33.198Z,11.40
2022-12-26T01:41:19.655Z,11.40
2022-12-26T01:43:58.933Z,11.40
2022-12-26T01:46:44.940Z,11.40
2022-12-26T01:49:31.922Z,11.40
2022-12-26T01:52:02.024Z,11.40
2022-12-26T01:54:40.001Z,11.40
2022-12-26T01:57:39.158Z,11.40
2022-12-26T02:00:06.945Z,11.40
2022-12-26T02:02:56.490Z,11.40
2022-12-26T02:05:33.963Z,11.50
2022-12-26T02:08:04.867Z,11.40
2022-12-26T02:10:34.027Z,11.40
2022-12-26T02:13:01.198Z,11.40
2022-12-26T02:15:28.123Z,11.40
2022-12-26T02:17:54.960Z,11.40
2022-12-26T02:20:25.475Z,11.40
2022-12-26T02:22:52.090Z,11.40
2022-12-26T02:25:47.070Z,11.40
2022-12-26T02:28:43.453Z,11.50
2022-12-26T02:31:17.821Z,11.40
2022-12-26T02:33:50.896Z,11.40
2022-12-26T02:36:25.304Z,11.50
2022-12-26T02:39:44.831Z,11.50
2022-12-26T02:42:14.870Z,11.50
2022-12-26T02:45:09.319Z,11.50
2022-12-26T02:47:39.198Z,11.50
2022-12-26T02:50:38.047Z,11.50
2022-12-26T02:53:27.026Z,11.40
2022-12-26T02:56:15.971Z,11.50
2022-12-26T02:59:06.560Z,11.40
2022-12-26T03:01:56.908Z,11.50
2022-12-26T03:04:43.184Z,11.50
2022-12-26T03:07:39.551Z,11.50
2022-12-26T03:10:34.556Z,11.40
2022-12-26T03:13:12.201Z,11.40
2022-12-26T03:16:13.708Z,11.40
2022-12-26T03:18:58.295Z,11.30
2022-12-26T03:21:30.283Z,11.30
2022-12-26T03:23:57.126Z,11.30
2022-12-26T03:26:40.228Z,11.30
2022-12-26T03:29:31.248Z,11.30
2022-12-26T03:31:58.962Z,11.30
2022-12-26T03:34:26.086Z,11.30
2022-12-26T03:37:07.790Z,11.70
2022-12-26T03:40:14.575Z,11.40
2022-12-26T03:43:01.535Z,11.40
2022-12-26T03:46:04.633Z,11.40
2022-12-26T03:48:54.224Z,11.40
2022-12-26T03:51:43.865Z,11.40
2022-12-26T03:54:35.068Z,11.30
2022-12-26T03:57:28.622Z,11.30
2022-12-26T04:00:28.488Z,11.30
2022-12-26T04:03:23.310Z,11.20
2022-12-26T04:06:09.615Z,11.30
2022-12-26T04:09:14.687Z,11.30
2022-12-26T04:12:00.969Z,11.20
2022-12-26T04:15:00.903Z,11.20
2022-12-26T04:18:01.144Z,11.20
2022-12-26T04:20:49.196Z,11.20
2022-12-26T04:23:34.522Z,11.20
2022-12-26T04:26:43.832Z,11.30
2022-12-26T04:29:29.099Z,11.30
2022-12-26T04:32:23.356Z,11.20
2022-12-26T04:35:22.807Z,11.20
2022-12-26T04:38:09.257Z,11.20
2022-12-26T04:40:59.171Z,11.10
2022-12-26T04:43:46.769Z,11.10
2022-12-26T04:46:18.826Z,11.10
2022-12-26T04:49:05.929Z,11.10
2022-12-26T04:51:32.629Z,11.00
2022-12-26T04:53:59.340Z,11.00
2022-12-26T04:56:26.037Z,11.00
2022-12-26T04:58:52.701Z,11.00
2022-12-26T05:01:38.438Z,11.00
2022-12-26T05:04:23.871Z,11.00
2022-12-26T05:07:09.138Z,11.00
2022-12-26T05:09:35.986Z,11.00
2022-12-26T05:12:05.575Z,11.10
2022-12-26T05:14:32.566Z,11.10
2022-12-26T05:17:18.518Z,11.20
2022-12-26T05:20:04.326Z,11.20
2022-12-26T05:22:52.040Z,11.20
2022-12-26T05:25:46.241Z,11.20
2022-12-26T05:28:33.365Z,11.20
2022-12-26T05:31:00.416Z,11.10
2022-12-26T05:33:46.188Z,11.00
2022-12-26T05:36:14.287Z,10.90
2022-12-26T05:38:40.931Z,10.90
2022-12-26T05:41:07.636Z,10.80
2022-12-26T05:43:34.409Z,10.80
2022-12-26T05:46:01.280Z,10.70
2022-12-26T05:48:28.147Z,10.70
2022-12-26T05:50:59.549Z,10.60
2022-12-26T05:53:27.087Z,10.50
2022-12-26T05:55:53.845Z,10.50
2022-12-26T05:58:21.412Z,10.40
2022-12-26T06:00:48.152Z,10.40
2022-12-26T06:03:14.983Z,10.40
2022-12-26T06:05:41.793Z,10.30
2022-12-26T06:08:08.462Z,10.30
2022-12-26T06:10:35.382Z,10.30
2022-12-26T06:13:02.096Z,10.30
2022-12-26T06:15:28.770Z,10.30
2022-12-26T06:17:56.623Z,10.20
2022-12-26T06:20:23.342Z,10.20
2022-12-26T06:22:50.029Z,10.20
2022-12-26T06:25:16.819Z,10.20
2022-12-26T06:27:43.870Z,10.20
2022-12-26T06:30:10.926Z,10.30
2022-12-26T06:32:37.627Z,10.30
2022-12-26T06:35:04.635Z,10.40
2022-12-26T06:37:33.080Z,10.40
2022-12-26T06:39:59.814Z,10.50
2022-12-26T06:42:27.242Z,10.50
2022-12-26T06:44:53.907Z,10.60
2022-12-26T06:47:20.602Z,10.60
2022-12-26T06:49:47.449Z,10.70
2022-12-26T06:52:14.936Z,10.70
2022-12-26T06:54:41.619Z,10.70
2022-12-26T06:57:08.295Z,10.70
2022-12-26T06:59:34.968Z,10.70
2022-12-26T07:02:01.760Z,10.60
2022-12-26T07:04:28.614Z,10.60
2022-12-26T07:06:55.310Z,10.40
2022-12-26T07:09:24.975Z,10.40
2022-12-26T07:11:56.354Z,10.30
2022-12-26T07:14:23.140Z,10.20
2022-12-26T07:16:49.850Z,10.10
2022-12-26T07:19:16.595Z,10.10
2022-12-26T07:21:43.689Z,10.10
2022-12-26T07:24:15.973Z,10.10
2022-12-26T07:26:43.413Z,10.00
2022-12-26T07:29:11.345Z,10.10
2022-12-26T07:31:38.405Z,10.10
2022-12-26T07:34:06.263Z,10.10
2022-12-26T07:36:33.004Z,10.10
2022-12-26T07:38:59.704Z,10.00
2022-12-26T07:41:45.049Z,10.00
2022-12-26T07:44:12.025Z,10.00
2022-12-26T07:46:38.960Z,10.00
2022-12-26T07:49:05.739Z,10.00
2022-12-26T07:51:32.436Z,10.00
2022-12-26T07:53:59.123Z,10.00
2022-12-26T07:56:26.134Z,10.00
2022-12-26T07:58:52.968Z,10.00
2022-12-26T08:01:19.876Z,9.90
2022-12-26T08:03:49.336Z,10.00
2022-12-26T08:06:17.226Z,10.00
2022-12-26T08:08:50.229Z,10.00
2022-12-26T08:11:19.885Z,10.00
2022-12-26T08:13:46.747Z,10.00
2022-12-26T08:16:14.873Z,10.00
2022-12-26T08:18:41.711Z,10.30
2022-12-26T08:21:08.503Z,10.00
2022-12-26T08:23:35.676Z,10.00
2022-12-26T08:26:12.445Z,10.00
2022-12-26T08:28:39.280Z,9.90
2022-12-26T08:31:07.886Z,10.00
2022-12-26T08:33:35.456Z,9.90
2022-12-26T08:36:07.532Z,9.90
2022-12-26T08:38:34.364Z,9.80
2022-12-26T08:41:01.349Z,9.80
2022-12-26T08:44:10.044Z,9.80
2022-12-26T08:46:15.220Z,9.80
2022-12-26T08:48:42.317Z,9.70
2022-12-26T08:51:20.794Z,9.70
2022-12-26T08:53:49.554Z,9.60
2022-12-26T08:56:18.797Z,9.60
2022-12-26T08:58:45.765Z,9.60
2022-12-26T09:01:18.099Z,9.60
2022-12-26T09:03:45.004Z,9.60
2022-12-26T09:06:13.183Z,9.50
2022-12-26T09:08:40.510Z,9.50
2022-12-26T09:11:12.138Z,9.50
2022-12-26T09:13:39.079Z,9.40
2022-12-26T09:16:13.854Z,9.40
2022-12-26T09:18:40.618Z,9.40
2022-12-26T09:21:08.992Z,9.40
2022-12-26T09:23:36.360Z,9.30
2022-12-26T09:26:12.207Z,9.20
2022-12-26T09:28:39.353Z,9.20
2022-12-26T09:31:09.622Z,9.10
2022-12-26T09:33:37.693Z,9.10
2022-12-26T09:36:14.756Z,9.10
2022-12-26T09:38:42.251Z,9.00
2022-12-26T09:41:34.035Z,9.00
2022-12-26T09:44:48.801Z,9.00
2022-12-26T09:47:36.684Z,8.90
2022-12-26T09:50:09.736Z,8.80
2022-12-26T09:52:56.109Z,8.80
2022-12-26T09:55:40.513Z,8.70
2022-12-26T09:58:20.113Z,8.70
2022-12-26T10:00:52.820Z,8.70
2022-12-26T10:03:20.049Z,8.70
2022-12-26T10:06:17.984Z,8.70
2022-12-26T10:09:15.585Z,8.70
2022-12-26T10:11:51.159Z,8.70
2022-12-26T10:14:31.662Z,8.70
2022-12-26T10:17:20.326Z,8.70
2022-12-26T10:20:13.495Z,8.70
2022-12-26T10:23:02.284Z,8.70
2022-12-26T10:25:42.254Z,8.70
2022-12-26T10:28:40.162Z,8.70
2022-12-26T10:31:18.144Z,8.60
2022-12-26T10:33:58.249Z,8.60
2022-12-26T10:36:41.697Z,8.60
2022-12-26T10:39:26.454Z,8.50
2022-12-26T10:41:57.393Z,8.50
2022-12-26T10:44:27.816Z,8.50
2022-12-26T10:47:16.662Z,8.50
2022-12-26T10:49:45.098Z,8.50
2022-12-26T10:52:12.854Z,8.50
2022-12-26T10:54:39.777Z,8.50
2022-12-26T10:57:08.393Z,8.50
2022-12-26T10:59:47.625Z,8.50
2022-12-26T11:02:22.574Z,8.50
2022-12-26T11:05:21.974Z,8.50
2022-12-26T11:08:16.505Z,8.60
2022-12-26T11:10:51.447Z,8.60
2022-12-26T11:13:20.853Z,8.50
2022-12-26T11:15:52.677Z,8.60
2022-12-26T11:18:33.452Z,8.60
2022-12-26T11:21:33.006Z,8.60
2022-12-26T11:24:08.988Z,8.70
2022-12-26T11:26:44.865Z,8.70
2022-12-26T11:29:15.008Z,8.70
2022-12-26T11:31:50.968Z,8.80
2022-12-26T11:34:45.846Z,8.70
2022-12-26T11:37:31.348Z,8.70
2022-12-26T11:39:58.508Z,8.70
2022-12-26T11:42:26.061Z,8.60
2022-12-26T11:44:55.229Z,8.60
2022-12-26T11:47:26.346Z,8.60
2022-12-26T11:50:02.022Z,8.60
2022-12-26T11:52:44.101Z,8.60
2022-12-26T11:55:23.212Z,8.60
2022-12-26T11:58:00.129Z,8.70
2022-12-26T12:00:27.319Z,8.70
2022-12-26T12:02:54.549Z,8.70
2022-12-26T12:05:43.245Z,8.70
2022-12-26T12:08:31.817Z,8.70
2022-12-26T12:11:29.385Z,8.70
2022-12-26T12:14:01.323Z,8.80
2022-12-26T12:16:55.042Z,8.80
2022-12-26T12:19:33.309Z,8.90
2022-12-26T12:22:26.582Z,8.90
2022-12-26T12:25:20.694Z,8.90
2022-12-26T12:28:07.019Z,8.90
2022-12-26T12:31:12.099Z,8.90
2022-12-26T12:33:38.773Z,8.80
2022-12-26T12:36:12.410Z,8.80
2022-12-26T12:38:56.364Z,8.80
2022-12-26T12:41:48.337Z,8.90
2022-12-26T12:44:57.069Z,8.90
2022-12-26T12:47:38.416Z,8.90
2022-12-26T12:50:34.076Z,8.70
2022-12-26T12:53:04.706Z,9.00
2022-12-26T12:55:48.040Z,9.00
2022-12-26T12:58:30.151Z,9.00
2022-12-26T13:01:08.229Z,9.00
2022-12-26T13:03:42.466Z,9.00
2022-12-26T13:06:13.891Z,9.00
2022-12-26T13:08:48.657Z,9.00
2022-12-26T13:11:29.221Z,9.10
2022-12-26T13:14:03.940Z,9.10
2022-12-26T13:16:31.894Z,9.10
2022-12-26T13:19:01.740Z,9.10
2022-12-26T13:21:30.526Z,9.10
2022-12-26T13:24:19.743Z,9.10
2022-12-26T13:27:21.892Z,9.10
2022-12-26T13:29:49.290Z,9.10
2022-12-26T13:32:27.869Z,9.10
2022-12-26T13:34:57.528Z,9.10
2022-12-26T13:37:39.460Z,9.10
2022-12-26T13:40:12.109Z,9.10
2022-12-26T13:43:02.629Z,9.10
2022-12-26T13:45:38.867Z,9.10
2022-12-26T13:48:37.722Z,9.10
2022-12-26T13:51:05.249Z,9.10
2022-12-26T13:53:35.375Z,9.00
2022-12-26T13:56:12.598Z,9.00
2022-12-26T13:58:51.765Z,9.00
2022-12-26T14:01:39.052Z,9.00
2022-12-26T14:04:34.016Z,9.00
2022-12-26T14:07:28.672Z,9.00
2022-12-26T14:10:38.438Z,9.00
2022-12-26T14:13:33.643Z,9.00
2022-12-26T14:16:47.837Z,9.00
2022-12-26T14:19:45.552Z,9.00
2022-12-26T14:22:30.756Z,9.00
2022-12-26T14:25:28.101Z,9.00
2022-12-26T14:28:10.874Z,9.00
2022-12-26T14:31:00.982Z,9.00
2022-12-26T14:33:38.547Z,8.90
2022-12-26T14:36:36.936Z,8.90
2022-12-26T14:39:27.269Z,8.90
2022-12-26T14:42:24.709Z,8.80
2022-12-26T14:44:53.659Z,8.90
2022-12-26T14:47:35.975Z,8.80
2022-12-26T14:50:36.843Z,8.80
2022-12-26T14:53:27.180Z,8.80
2022-12-26T14:56:21.395Z,8.80
2022-12-26T14:58:49.393Z,8.80
2022-12-26T15:01:17.734Z,8.80
2022-12-26T15:03:56.863Z,8.80
2022-12-26T15:06:29.402Z,8.80
2022-12-26T15:09:08.394Z,8.80
2022-12-26T15:12:09.089Z,8.70
2022-12-26T15:14:52.436Z,8.70
2022-12-26T15:17:25.319Z,8.80
2022-12-26T15:20:23.130Z,8.80
2022-12-26T15:23:01.857Z,8.80
2022-12-26T15:25:46.603Z,8.80
2022-12-26T15:28:43.644Z,8.70
2022-12-26T15:31:26.737Z,8.80
2022-12-26T15:34:11.790Z,8.80
2022-12-26T15:37:21.602Z,8.80
2022-12-26T15:40:14.660Z,8.90
2022-12-26T15:43:02.966Z,8.90
2022-12-26T15:45:45.407Z,9.00
2022-12-26T15:48:35.605Z,9.00
2022-12-26T15:51:15.089Z,9.00
2022-12-26T15:54:03.397Z,8.90
2022-12-26T15:56:39.116Z,8.50
2022-12-26T15:59:25.954Z,8.90
2022-12-26T16:01:53.816Z,8.90
2022-12-26T16:04:40.870Z,8.80
2022-12-26T16:07:37.718Z,8.80
2022-12-26T16:10:24.864Z,8.80
2022-12-26T16:13:11.392Z,8.80
2022-12-26T16:15:48.441Z,8.70
2022-12-26T16:18:33.226Z,8.60
2022-12-26T16:21:21.043Z,8.50
2022-12-26T16:23:49.276Z,8.60
2022-12-26T16:26:19.436Z,8.50
2022-12-26T16:28:46.223Z,8.50
2022-12-26T16:31:20.444Z,8.50
2022-12-26T16:33:48.159Z,8.50
2022-12-26T16:36:27.641Z,8.40
2022-12-26T16:38:55.256Z,8.40
2022-12-26T16:41:27.940Z,8.30
2022-12-26T16:43:56.145Z,8.20
2022-12-26T16:46:29.791Z,8.20
2022-12-26T16:48:59.035Z,8.30
2022-12-26T16:51:47.266Z,8.30
2022-12-26T16:54:16.485Z,8.30
2022-12-26T16:56:43.539Z,8.20
2022-12-26T16:59:17.855Z,8.20
2022-12-26T17:01:51.028Z,8.20
2022-12-26T17:04:26.315Z,8.20
2022-12-26T17:06:59.403Z,8.20
2022-12-26T17:09:27.739Z,8.20
2022-12-26T17:12:07.706Z,8.20
2022-12-26T17:14:43.245Z,8.10
2022-12-26T17:17:22.074Z,8.10
2022-12-26T17:19:53.958Z,8.00
2022-12-26T17:22:32.820Z,8.00
2022-12-26T17:25:17.810Z,7.90
2022-12-26T17:27:45.132Z,7.90
2022-12-26T17:30:29.657Z,7.80
2022-12-26T17:33:02.147Z,7.80
2022-12-26T17:35:41.484Z,7.80
2022-12-26T17:38:23.111Z,7.70
2022-12-26T17:40:53.486Z,7.70
2022-12-26T17:43:23.708Z,7.70
2022-12-26T17:45:50.532Z,7.70
2022-12-26T17:48:17.195Z,7.70
2022-12-26T17:50:45.846Z,7.70
2022-12-26T17:53:15.222Z,7.70
2022-12-26T17:55:42.133Z,7.70
2022-12-26T17:58:15.150Z,7.60
2022-12-26T18:00:43.289Z,6.60
2022-12-26T18:03:10.445Z,7.60
2022-12-26T18:05:37.472Z,7.60
2022-12-26T18:08:04.893Z,7.50
2022-12-26T18:10:35.368Z,7.50
2022-12-26T18:13:02.326Z,7.40
2022-12-26T18:15:30.244Z,7.40
2022-12-26T18:17:57.630Z,7.30
2022-12-26T18:20:29.166Z,7.10
2022-12-26T18:22:56.834Z,7.00
2022-12-26T18:25:24.973Z,7.00
2022-12-26T18:27:51.913Z,6.90
2022-12-26T18:30:24.296Z,6.80
2022-12-26T18:32:52.384Z,6.80
2022-12-26T18:35:19.332Z,6.70
2022-12-26T18:37:52.386Z,6.70
2022-12-26T18:40:29.966Z,6.70
2022-12-26T18:42:56.643Z,6.60
2022-12-26T18:45:23.637Z,6.60
2022-12-26T18:47:50.405Z,6.60
2022-12-26T18:50:17.183Z,6.60
2022-12-26T18:52:46.522Z,6.60
2022-12-26T18:55:16.844Z,6.60
2022-12-26T18:57:43.532Z,6.60
2022-12-26T19:00:14.208Z,6.70
2022-12-26T19:02:41.044Z,6.70
2022-12-26T19:05:22.234Z,6.70
2022-12-26T19:07:50.132Z,6.80
2022-12-26T19:10:18.605Z,6.80
2022-12-26T19:12:45.561Z,6.90
2022-12-26T19:15:13.389Z,6.90
2022-12-26T19:17:41.044Z,6.90
2022-12-26T19:20:18.022Z,6.80
2022-12-26T19:22:45.709Z,6.70
2022-12-26T19:25:13.554Z,6.60
2022-12-26T19:27:40.628Z,6.60
2022-12-26T19:30:08.092Z,6.50
2022-12-26T19:32:35.215Z,6.40
2022-12-26T19:35:02.004Z,6.40
2022-12-26T19:37:29.243Z,6.40
2022-12-26T19:39:56.233Z,6.40
2022-12-26T19:42:22.883Z,6.40
2022-12-26T19:44:49.579Z,6.40
2022-12-26T19:47:16.648Z,6.40
2022-12-26T19:49:43.689Z,6.40
2022-12-26T19:52:11.254Z,6.40
2022-12-26T19:54:38.473Z,6.30
2022-12-26T19:57:05.268Z,6.30
2022-12-26T19:59:32.099Z,6.30
2022-12-26T20:01:58.990Z,6.30
2022-12-26T20:04:28.971Z,6.30
2022-12-26T20:06:59.241Z,6.30
2022-12-26T20:09:26.113Z,6.30
2022-12-26T20:11:54.141Z,6.20
2022-12-26T20:14:21.885Z,6.20
2022-12-26T20:17:08.882Z,6.20
2022-12-26T20:19:36.781Z,6.10
2022-12-26T20:22:04.089Z,6.00
2022-12-26T20:24:31.119Z,6.00
2022-12-26T20:26:58.118Z,6.00
2022-12-26T20:29:24.880Z,6.00
2022-12-26T20:31:54.953Z,6.00
2022-12-26T20:34:21.876Z,6.00
2022-12-26T20:36:48.609Z,6.00
2022-12-26T20:39:18.419Z,6.00
2022-12-26T20:41:45.824Z,6.00
2022-12-26T20:44:14.201Z,6.00
2022-12-26T20:46:41.741Z,6.00
2022-12-26T20:49:09.782Z,6.00
2022-12-26T20:51:38.728Z,6.00
2022-12-26T20:54:08.005Z,5.90
2022-12-26T20:56:36.231Z,5.90
2022-12-26T20:59:03.510Z,5.90
2022-12-26T21:01:30.689Z,5.90
2022-12-26T21:03:58.160Z,5.90
2022-12-26T21:06:30.041Z,5.90
2022-12-26T21:08:57.772Z,5.80
2022-12-26T21:11:32.950Z,5.80
2022-12-26T21:14:02.117Z,5.80
2022-12-26T21:16:52.903Z,5.80
2022-12-26T21:19:20.842Z,5.80
2022-12-26T21:21:51.210Z,5.70
2022-12-26T21:24:24.221Z,5.70
2022-12-26T21:26:51.368Z,5.70
2022-12-26T21:29:24.904Z,5.70
2022-12-26T21:31:51.964Z,5.70
2022-12-26T21:34:20.701Z,5.60
2022-12-26T21:37:05.968Z,5.60
2022-12-26T21:39:34.765Z,5.60
2022-12-26T21:42:01.863Z,5.60
2022-12-26T21:44:28.561Z,5.50
2022-12-26T21:46:55.327Z,5.50
2022-12-26T21:49:22.060Z,5.50
2022-12-26T21:51:48.783Z,5.50
2022-12-26T21:54:34.166Z,5.50
2022-12-26T21:57:00.845Z,5.50
2022-12-26T21:59:46.111Z,5.50
2022-12-26T22:02:34.010Z,5.50
2022-12-26T22:05:01.511Z,5.50
2022-12-26T22:07:28.683Z,5.50
2022-12-26T22:09:55.366Z,5.50
2022-12-26T22:12:40.624Z,5.40
2022-12-26T22:15:31.302Z,5.40
2022-12-26T22:17:58.311Z,5.40
2022-12-26T22:20:25.057Z,5.40
2022-12-26T22:22:51.940Z,5.40
2022-12-26T22:25:19.379Z,5.40
2022-12-26T22:27:46.051Z,5.40
2022-12-26T22:30:13.275Z,5.40
2022-12-26T22:32:39.957Z,5.30
2022-12-26T22:35:08.313Z,5.30
2022-12-26T22:37:37.408Z,5.20
2022-12-26T22:40:05.013Z,5.20
2022-12-26T22:42:31.945Z,5.20
2022-12-26T22:44:58.676Z,5.10
2022-12-26T22:47:27.006Z,5.00
2022-12-26T22:49:53.617Z,5.00
2022-12-26T22:52:20.262Z,4.90
2022-12-26T22:54:46.949Z,4.90
2022-12-26T22:57:13.925Z,4.80
2022-12-26T23:00:07.432Z,4.70
2022-12-26T23:02:27.656Z,4.60
2022-12-26T23:04:54.687Z,4.60
2022-12-26T23:07:21.945Z,4.50
2022-12-26T23:09:48.849Z,4.50
2022-12-26T23:12:34.224Z,4.40
2022-12-26T23:15:01.171Z,4.40
2022-12-26T23:17:49.023Z,4.40
2022-12-26T23:20:34.283Z,4.40
2022-12-26T23:23:01.264Z,4.40
2022-12-26T23:25:27.929Z,4.40
2022-12-26T23:28:13.134Z,4.40
2022-12-26T23:30:39.798Z,4.40
2022-12-26T23:33:06.468Z,4.40
2022-12-26T23:35:33.165Z,4.40
2022-12-26T23:37:59.785Z,4.40
2022-12-26T23:40:26.687Z,4.40
2022-12-26T23:42:53.349Z,4.40
2022-12-26T23:45:20.080Z,4.30
2022-12-26T23:47:46.860Z,4.30
2022-12-26T23:50:14.854Z,4.30
2022-12-26T23:52:41.698Z,4.20
2022-12-26T23:55:09.231Z,4.20
2022-12-26T23:57:35.905Z,4.20
